sensor_id;sensor_type;location;lat;lon;timestamp;P1;durP1;ratioP1;P2;durP2;ratioP2
20287;SDS011;10303;51.960;8.372;2023-10-08T00:01:08;8.90;;;4.33;;
20287;SDS011;10303;51.960;8.372;2023-10-08T00:03:44;9.60;;;4.37;;
20287;SDS011;10303;51.960;8.372;2023-10-08T00:06:16;12.27;;;5.03;;
20287;SDS011;10303;51.960;8.372;2023-10-08T00:08:45;6.07;;;3.20;;
20287;SDS011;10303;51.960;8.372;2023-10-08T00:11:12;7.77;;;4.17;;
20287;SDS011;10303;51.960;8.372;2023-10-08T00:13:41;16.00;;;5.00;;
20287;SDS011;10303;51.960;8.372;2023-10-08T00:16:12;7.93;;;3.97;;
20287;SDS011;10303;51.960;8.372;2023-10-08T00:18:43;10.63;;;3.83;;
20287;SDS011;10303;51.960;8.372;2023-10-08T00:21:16;10.05;;;4.63;;
20287;SDS011;10303;51.960;8.372;2023-10-08T00:23:45;6.33;;;4.30;;
20287;SDS011;10303;51.960;8.372;2023-10-08T00:26:20;11.67;;;4.30;;
20287;SDS011;10303;51.960;8.372;2023-10-08T00:28:56;11.60;;;3.90;;
20287;SDS011;10303;51.960;8.372;2023-10-08T00:31:47;8.10;;;3.72;;
20287;SDS011;10303;51.960;8.372;2023-10-08T00:34:15;13.90;;;4.97;;
20287;SDS011;10303;51.960;8.372;2023-10-08T00:36:44;11.45;;;5.22;;
20287;SDS011;10303;51.960;8.372;2023-10-08T00:39:13;9.88;;;4.47;;
20287;SDS011;10303;51.960;8.372;2023-10-08T00:41:40;14.17;;;5.43;;
20287;SDS011;10303;51.960;8.372;2023-10-08T00:44:08;16.40;;;4.95;;
20287;SDS011;10303;51.960;8.372;2023-10-08T00:46:47;9.00;;;4.10;;
20287;SDS011;10303;51.960;8.372;2023-10-08T00:49:18;7.53;;;3.88;;
20287;SDS011;10303;51.960;8.372;2023-10-08T00:52:03;9.05;;;4.03;;
20287;SDS011;10303;51.960;8.372;2023-10-08T00:54:33;8.53;;;4.80;;
20287;SDS011;10303;51.960;8.372;2023-10-08T00:57:13;11.00;;;4.93;;
20287;SDS011;10303;51.960;8.372;2023-10-08T00:59:50;15.57;;;5.13;;
20287;SDS011;10303;51.960;8.372;2023-10-08T01:02:19;14.77;;;4.37;;
20287;SDS011;10303;51.960;8.372;2023-10-08T01:04:51;8.10;;;4.10;;
20287;SDS011;10303;51.960;8.372;2023-10-08T01:07:19;10.00;;;5.33;;
20287;SDS011;10303;51.960;8.372;2023-10-08T01:09:49;8.77;;;4.43;;
20287;SDS011;10303;51.960;8.372;2023-10-08T01:12:26;13.47;;;4.67;;
20287;SDS011;10303;51.960;8.372;2023-10-08T01:15:09;8.33;;;3.77;;
20287;SDS011;10303;51.960;8.372;2023-10-08T01:17:41;10.93;;;4.60;;
20287;SDS011;10303;51.960;8.372;2023-10-08T01:20:33;11.10;;;4.80;;
20287;SDS011;10303;51.960;8.372;2023-10-08T01:23:00;16.07;;;5.57;;
20287;SDS011;10303;51.960;8.372;2023-10-08T01:25:29;13.27;;;4.53;;
20287;SDS011;10303;51.960;8.372;2023-10-08T01:27:56;11.13;;;4.23;;
20287;SDS011;10303;51.960;8.372;2023-10-08T01:30:26;7.07;;;4.00;;
20287;SDS011;10303;51.960;8.372;2023-10-08T01:32:56;9.87;;;4.90;;
20287;SDS011;10303;51.960;8.372;2023-10-08T01:35:21;8.17;;;4.20;;
20287;SDS011;10303;51.960;8.372;2023-10-08T01:37:51;11.50;;;4.33;;
20287;SDS011;10303;51.960;8.372;2023-10-08T01:40:22;10.53;;;4.13;;
20287;SDS011;10303;51.960;8.372;2023-10-08T01:42:51;5.07;;;3.33;;
20287;SDS011;10303;51.960;8.372;2023-10-08T01:45:17;1.50;;;1.40;;
20287;SDS011;10303;51.960;8.372;2023-10-08T01:47:44;2.10;;;1.43;;
20287;SDS011;10303;51.960;8.372;2023-10-08T01:50:11;0.50;;;0.50;;
20287;SDS011;10303;51.960;8.372;2023-10-08T01:52:46;0.90;;;0.60;;
20287;SDS011;10303;51.960;8.372;2023-10-08T01:55:17;0.20;;;0.20;;
20287;SDS011;10303;51.960;8.372;2023-10-08T01:57:45;0.20;;;0.20;;
20287;SDS011;10303;51.960;8.372;2023-10-08T02:00:12;0.30;;;0.30;;
20287;SDS011;10303;51.960;8.372;2023-10-08T02:02:39;0.20;;;0.20;;
20287;SDS011;10303;51.960;8.372;2023-10-08T02:05:08;0.10;;;0.10;;
20287;SDS011;10303;51.960;8.372;2023-10-08T02:07:34;0.00;;;0.00;;
20287;SDS011;10303;51.960;8.372;2023-10-08T02:10:00;0.10;;;0.10;;
20287;SDS011;10303;51.960;8.372;2023-10-08T02:12:26;0.10;;;0.10;;
20287;SDS011;10303;51.960;8.372;2023-10-08T02:14:52;0.00;;;0.00;;
20287;SDS011;10303;51.960;8.372;2023-10-08T02:17:18;0.10;;;0.10;;
20287;SDS011;10303;51.960;8.372;2023-10-08T02:19:44;0.00;;;0.00;;
20287;SDS011;10303;51.960;8.372;2023-10-08T02:22:11;0.10;;;0.10;;
20287;SDS011;10303;51.960;8.372;2023-10-08T02:24:37;0.00;;;0.00;;
20287;SDS011;10303;51.960;8.372;2023-10-08T02:27:05;0.00;;;0.00;;
20287;SDS011;10303;51.960;8.372;2023-10-08T02:29:32;0.10;;;0.10;;
20287;SDS011;10303;51.960;8.372;2023-10-08T02:31:58;0.00;;;0.00;;
20287;SDS011;10303;51.960;8.372;2023-10-08T02:34:24;0.00;;;0.00;;
20287;SDS011;10303;51.960;8.372;2023-10-08T02:36:51;0.00;;;0.00;;
20287;SDS011;10303;51.960;8.372;2023-10-08T02:39:17;0.00;;;0.00;;
20287;SDS011;10303;51.960;8.372;2023-10-08T02:41:53;0.03;;;0.03;;
20287;SDS011;10303;51.960;8.372;2023-10-08T02:44:22;0.10;;;0.10;;
20287;SDS011;10303;51.960;8.372;2023-10-08T02:46:49;0.10;;;0.10;;
20287;SDS011;10303;51.960;8.372;2023-10-08T02:49:17;0.10;;;0.10;;
20287;SDS011;10303;51.960;8.372;2023-10-08T02:51:46;0.10;;;0.10;;
20287;SDS011;10303;51.960;8.372;2023-10-08T02:54:18;0.10;;;0.10;;
20287;SDS011;10303;51.960;8.372;2023-10-08T02:56:48;0.00;;;0.00;;
20287;SDS011;10303;51.960;8.372;2023-10-08T02:59:17;0.10;;;0.10;;
20287;SDS011;10303;51.960;8.372;2023-10-08T03:01:47;0.10;;;0.10;;
20287;SDS011;10303;51.960;8.372;2023-10-08T03:04:22;0.10;;;0.10;;
20287;SDS011;10303;51.960;8.372;2023-10-08T03:06:49;0.10;;;0.10;;
20287;SDS011;10303;51.960;8.372;2023-10-08T03:09:17;0.00;;;0.00;;
20287;SDS011;10303;51.960;8.372;2023-10-08T03:11:50;0.10;;;0.10;;
20287;SDS011;10303;51.960;8.372;2023-10-08T03:14:18;0.10;;;0.10;;
20287;SDS011;10303;51.960;8.372;2023-10-08T03:16:51;0.10;;;0.10;;
20287;SDS011;10303;51.960;8.372;2023-10-08T03:19:20;0.10;;;0.10;;
20287;SDS011;10303;51.960;8.372;2023-10-08T03:21:48;0.10;;;0.10;;
20287;SDS011;10303;51.960;8.372;2023-10-08T03:24:21;0.10;;;0.10;;
20287;SDS011;10303;51.960;8.372;2023-10-08T03:27:03;0.10;;;0.10;;
20287;SDS011;10303;51.960;8.372;2023-10-08T03:29:46;0.10;;;0.10;;
20287;SDS011;10303;51.960;8.372;2023-10-08T03:32:14;0.20;;;0.20;;
20287;SDS011;10303;51.960;8.372;2023-10-08T03:34:48;0.20;;;0.20;;
20287;SDS011;10303;51.960;8.372;2023-10-08T03:37:19;0.10;;;0.10;;
20287;SDS011;10303;51.960;8.372;2023-10-08T03:39:54;0.20;;;0.20;;
20287;SDS011;10303;51.960;8.372;2023-10-08T03:42:50;0.20;;;0.20;;
20287;SDS011;10303;51.960;8.372;2023-10-08T03:45:17;0.10;;;0.10;;
20287;SDS011;10303;51.960;8.372;2023-10-08T03:48:02;0.10;;;0.10;;
20287;SDS011;10303;51.960;8.372;2023-10-08T03:50:31;0.20;;;0.20;;
20287;SDS011;10303;51.960;8.372;2023-10-08T03:53:07;0.10;;;0.10;;
20287;SDS011;10303;51.960;8.372;2023-10-08T03:55:40;0.10;;;0.10;;
20287;SDS011;10303;51.960;8.372;2023-10-08T03:58:09;0.10;;;0.10;;
20287;SDS011;10303;51.960;8.372;2023-10-08T04:00:42;0.10;;;0.10;;
20287;SDS011;10303;51.960;8.372;2023-10-08T04:03:11;0.10;;;0.10;;
20287;SDS011;10303;51.960;8.372;2023-10-08T04:05:40;0.10;;;0.10;;
20287;SDS011;10303;51.960;8.372;2023-10-08T04:08:15;0.10;;;0.10;;
20287;SDS011;10303;51.960;8.372;2023-10-08T04:10:49;0.10;;;0.10;;
20287;SDS011;10303;51.960;8.372;2023-10-08T04:13:47;1.33;;;0.10;;
20287;SDS011;10303;51.960;8.372;2023-10-08T04:16:14;0.10;;;0.10;;
20287;SDS011;10303;51.960;8.372;2023-10-08T04:18:44;3.80;;;0.50;;
20287;SDS011;10303;51.960;8.372;2023-10-08T04:21:16;0.13;;;0.13;;
20287;SDS011;10303;51.960;8.372;2023-10-08T04:23:45;0.10;;;0.10;;
20287;SDS011;10303;51.960;8.372;2023-10-08T04:26:18;0.50;;;0.20;;
20287;SDS011;10303;51.960;8.372;2023-10-08T04:28:55;0.30;;;0.30;;
20287;SDS011;10303;51.960;8.372;2023-10-08T04:31:31;0.10;;;0.10;;
20287;SDS011;10303;51.960;8.372;2023-10-08T04:34:03;0.37;;;0.20;;
20287;SDS011;10303;51.960;8.372;2023-10-08T04:36:42;0.20;;;0.20;;
20287;SDS011;10303;51.960;8.372;2023-10-08T04:39:16;0.40;;;0.33;;
20287;SDS011;10303;51.960;8.372;2023-10-08T04:41:47;0.10;;;0.10;;
20287;SDS011;10303;51.960;8.372;2023-10-08T04:44:18;0.23;;;0.10;;
20287;SDS011;10303;51.960;8.372;2023-10-08T04:46:44;0.47;;;0.20;;
20287;SDS011;10303;51.960;8.372;2023-10-08T04:49:10;0.20;;;0.20;;
20287;SDS011;10303;51.960;8.372;2023-10-08T04:51:48;0.10;;;0.10;;
20287;SDS011;10303;51.960;8.372;2023-10-08T04:54:14;1.03;;;0.33;;
20287;SDS011;10303;51.960;8.372;2023-10-08T04:56:42;0.60;;;0.20;;
20287;SDS011;10303;51.960;8.372;2023-10-08T04:59:09;0.93;;;0.33;;
20287;SDS011;10303;51.960;8.372;2023-10-08T05:01:39;0.80;;;0.30;;
20287;SDS011;10303;51.960;8.372;2023-10-08T05:04:28;3.30;;;0.40;;
20287;SDS011;10303;51.960;8.372;2023-10-08T05:07:10;0.73;;;0.20;;
20287;SDS011;10303;51.960;8.372;2023-10-08T05:09:46;0.30;;;0.30;;
20287;SDS011;10303;51.960;8.372;2023-10-08T05:12:13;0.43;;;0.37;;
20287;SDS011;10303;51.960;8.372;2023-10-08T05:14:59;0.77;;;0.30;;
20287;SDS011;10303;51.960;8.372;2023-10-08T05:17:38;0.27;;;0.20;;
20287;SDS011;10303;51.960;8.372;2023-10-08T05:20:23;0.30;;;0.30;;
20287;SDS011;10303;51.960;8.372;2023-10-08T05:23:15;0.33;;;0.30;;
20287;SDS011;10303;51.960;8.372;2023-10-08T05:25:58;0.67;;;0.30;;
20287;SDS011;10303;51.960;8.372;2023-10-08T05:28:33;1.60;;;0.20;;
20287;SDS011;10303;51.960;8.372;2023-10-08T05:31:21;0.30;;;0.30;;
20287;SDS011;10303;51.960;8.372;2023-10-08T05:34:02;0.40;;;0.30;;
20287;SDS011;10303;51.960;8.372;2023-10-08T05:36:28;0.70;;;0.23;;
20287;SDS011;10303;51.960;8.372;2023-10-08T05:39:01;1.37;;;0.27;;
20287;SDS011;10303;51.960;8.372;2023-10-08T05:41:50;1.30;;;0.30;;
20287;SDS011;10303;51.960;8.372;2023-10-08T05:44:17;0.50;;;0.30;;
20287;SDS011;10303;51.960;8.372;2023-10-08T05:46:43;0.50;;;0.30;;
20287;SDS011;10303;51.960;8.372;2023-10-08T05:49:19;1.83;;;0.40;;
20287;SDS011;10303;51.960;8.372;2023-10-08T05:51:57;0.30;;;0.30;;
20287;SDS011;10303;51.960;8.372;2023-10-08T05:54:29;0.90;;;0.30;;
20287;SDS011;10303;51.960;8.372;2023-10-08T05:57:06;0.20;;;0.20;;
20287;SDS011;10303;51.960;8.372;2023-10-08T06:02:23;2.90;;;0.67;;
20287;SDS011;10303;51.960;8.372;2023-10-08T06:05:03;0.33;;;0.20;;
20287;SDS011;10303;51.960;8.372;2023-10-08T06:10:20;0.30;;;0.30;;
20287;SDS011;10303;51.960;8.372;2023-10-08T06:15:55;0.70;;;0.40;;
20287;SDS011;10303;51.960;8.372;2023-10-08T06:18:23;0.77;;;0.30;;
20287;SDS011;10303;51.960;8.372;2023-10-08T06:20:52;0.30;;;0.30;;
20287;SDS011;10303;51.960;8.372;2023-10-08T06:23:26;0.30;;;0.30;;
20287;SDS011;10303;51.960;8.372;2023-10-08T06:25:57;1.20;;;0.27;;
20287;SDS011;10303;51.960;8.372;2023-10-08T06:28:24;2.20;;;0.40;;
20287;SDS011;10303;51.960;8.372;2023-10-08T06:30:53;0.30;;;0.20;;
20287;SDS011;10303;51.960;8.372;2023-10-08T06:33:25;0.93;;;0.60;;
20287;SDS011;10303;51.960;8.372;2023-10-08T06:35:56;0.40;;;0.30;;
20287;SDS011;10303;51.960;8.372;2023-10-08T06:38:32;2.33;;;0.40;;
20287;SDS011;10303;51.960;8.372;2023-10-08T06:40:59;0.57;;;0.20;;
20287;SDS011;10303;51.960;8.372;2023-10-08T06:43:28;0.27;;;0.27;;
20287;SDS011;10303;51.960;8.372;2023-10-08T06:45:54;0.20;;;0.20;;
20287;SDS011;10303;51.960;8.372;2023-10-08T06:48:23;0.43;;;0.43;;
20287;SDS011;10303;51.960;8.372;2023-10-08T06:50:50;0.70;;;0.20;;
20287;SDS011;10303;51.960;8.372;2023-10-08T06:53:23;1.43;;;0.40;;
20287;SDS011;10303;51.960;8.372;2023-10-08T06:55:50;1.97;;;0.30;;
20287;SDS011;10303;51.960;8.372;2023-10-08T06:58:24;0.83;;;0.30;;
20287;SDS011;10303;51.960;8.372;2023-10-08T07:00:51;0.80;;;0.20;;
20287;SDS011;10303;51.960;8.372;2023-10-08T07:03:20;0.60;;;0.20;;
20287;SDS011;10303;51.960;8.372;2023-10-08T07:05:49;1.73;;;0.40;;
20287;SDS011;10303;51.960;8.372;2023-10-08T07:08:22;1.60;;;0.30;;
20287;SDS011;10303;51.960;8.372;2023-10-08T07:10:57;0.47;;;0.40;;
20287;SDS011;10303;51.960;8.372;2023-10-08T07:13:26;0.20;;;0.20;;
20287;SDS011;10303;51.960;8.372;2023-10-08T07:15:55;1.53;;;0.27;;
20287;SDS011;10303;51.960;8.372;2023-10-08T07:18:21;0.50;;;0.30;;
20287;SDS011;10303;51.960;8.372;2023-10-08T07:20:51;1.27;;;0.43;;
20287;SDS011;10303;51.960;8.372;2023-10-08T07:23:28;0.80;;;0.37;;
20287;SDS011;10303;51.960;8.372;2023-10-08T07:25:58;0.33;;;0.20;;
20287;SDS011;10303;51.960;8.372;2023-10-08T07:28:47;0.20;;;0.20;;
20287;SDS011;10303;51.960;8.372;2023-10-08T07:31:13;0.60;;;0.40;;
20287;SDS011;10303;51.960;8.372;2023-10-08T07:33:41;0.40;;;0.40;;
20287;SDS011;10303;51.960;8.372;2023-10-08T07:36:10;0.80;;;0.50;;
20287;SDS011;10303;51.960;8.372;2023-10-08T07:38:42;1.03;;;0.67;;
20287;SDS011;10303;51.960;8.372;2023-10-08T07:41:09;2.67;;;1.20;;
20287;SDS011;10303;51.960;8.372;2023-10-08T07:43:43;0.30;;;0.30;;
20287;SDS011;10303;51.960;8.372;2023-10-08T07:46:11;1.23;;;0.43;;
20287;SDS011;10303;51.960;8.372;2023-10-08T07:48:40;0.30;;;0.30;;
20287;SDS011;10303;51.960;8.372;2023-10-08T07:51:08;0.30;;;0.30;;
20287;SDS011;10303;51.960;8.372;2023-10-08T07:53:34;0.80;;;0.60;;
20287;SDS011;10303;51.960;8.372;2023-10-08T07:56:06;0.80;;;0.50;;
20287;SDS011;10303;51.960;8.372;2023-10-08T07:58:33;0.40;;;0.40;;
20287;SDS011;10303;51.960;8.372;2023-10-08T08:01:05;1.30;;;0.40;;
20287;SDS011;10303;51.960;8.372;2023-10-08T08:03:34;1.70;;;0.80;;
20287;SDS011;10303;51.960;8.372;2023-10-08T08:06:06;0.43;;;0.40;;
20287;SDS011;10303;51.960;8.372;2023-10-08T08:08:36;0.80;;;0.50;;
20287;SDS011;10303;51.960;8.372;2023-10-08T08:11:04;0.20;;;0.20;;
20287;SDS011;10303;51.960;8.372;2023-10-08T08:13:39;0.50;;;0.50;;
20287;SDS011;10303;51.960;8.372;2023-10-08T08:16:09;0.40;;;0.30;;
20287;SDS011;10303;51.960;8.372;2023-10-08T08:21:17;1.37;;;0.50;;
20287;SDS011;10303;51.960;8.372;2023-10-08T08:23:45;1.03;;;0.40;;
20287;SDS011;10303;51.960;8.372;2023-10-08T08:26:20;0.70;;;0.50;;
20287;SDS011;10303;51.960;8.372;2023-10-08T08:31:29;1.63;;;0.93;;
20287;SDS011;10303;51.960;8.372;2023-10-08T08:34:01;2.10;;;0.83;;
20287;SDS011;10303;51.960;8.372;2023-10-08T08:36:33;1.70;;;0.40;;
20287;SDS011;10303;51.960;8.372;2023-10-08T08:39:03;0.80;;;0.43;;
20287;SDS011;10303;51.960;8.372;2023-10-08T08:41:30;1.70;;;0.63;;
20287;SDS011;10303;51.960;8.372;2023-10-08T08:43:56;1.03;;;0.67;;
20287;SDS011;10303;51.960;8.372;2023-10-08T08:46:33;0.70;;;0.50;;
20287;SDS011;10303;51.960;8.372;2023-10-08T08:49:06;0.63;;;0.60;;
20287;SDS011;10303;51.960;8.372;2023-10-08T08:51:37;1.77;;;1.00;;
20287;SDS011;10303;51.960;8.372;2023-10-08T08:54:04;0.50;;;0.50;;
20287;SDS011;10303;51.960;8.372;2023-10-08T08:56:34;1.63;;;0.83;;
20287;SDS011;10303;51.960;8.372;2023-10-08T08:59:07;1.20;;;0.90;;
20287;SDS011;10303;51.960;8.372;2023-10-08T09:01:39;2.17;;;0.80;;
20287;SDS011;10303;51.960;8.372;2023-10-08T09:04:07;1.13;;;0.50;;
20287;SDS011;10303;51.960;8.372;2023-10-08T09:06:36;5.30;;;1.07;;
20287;SDS011;10303;51.960;8.372;2023-10-08T09:09:06;1.53;;;0.70;;
20287;SDS011;10303;51.960;8.372;2023-10-08T09:11:48;1.07;;;0.60;;
20287;SDS011;10303;51.960;8.372;2023-10-08T09:14:21;3.40;;;1.23;;
20287;SDS011;10303;51.960;8.372;2023-10-08T09:16:59;1.37;;;0.50;;
20287;SDS011;10303;51.960;8.372;2023-10-08T09:19:26;1.93;;;0.77;;
20287;SDS011;10303;51.960;8.372;2023-10-08T09:22:02;0.70;;;0.70;;
20287;SDS011;10303;51.960;8.372;2023-10-08T09:24:31;0.60;;;0.50;;
20287;SDS011;10303;51.960;8.372;2023-10-08T09:27:02;1.80;;;0.70;;
20287;SDS011;10303;51.960;8.372;2023-10-08T09:29:33;1.27;;;0.90;;
20287;SDS011;10303;51.960;8.372;2023-10-08T09:32:05;2.03;;;0.67;;
20287;SDS011;10303;51.960;8.372;2023-10-08T09:34:34;1.70;;;0.60;;
20287;SDS011;10303;51.960;8.372;2023-10-08T09:37:01;1.50;;;0.70;;
20287;SDS011;10303;51.960;8.372;2023-10-08T09:39:30;0.63;;;0.50;;
20287;SDS011;10303;51.960;8.372;2023-10-08T09:42:03;0.60;;;0.50;;
20287;SDS011;10303;51.960;8.372;2023-10-08T09:44:31;1.07;;;0.57;;
20287;SDS011;10303;51.960;8.372;2023-10-08T09:47:05;1.13;;;0.50;;
20287;SDS011;10303;51.960;8.372;2023-10-08T09:49:52;0.30;;;0.30;;
20287;SDS011;10303;51.960;8.372;2023-10-08T09:52:33;0.40;;;0.40;;
20287;SDS011;10303;51.960;8.372;2023-10-08T09:55:10;0.83;;;0.40;;
20287;SDS011;10303;51.960;8.372;2023-10-08T09:57:36;1.77;;;0.50;;
20287;SDS011;10303;51.960;8.372;2023-10-08T10:00:06;1.73;;;0.50;;
20287;SDS011;10303;51.960;8.372;2023-10-08T10:02:41;0.50;;;0.37;;
20287;SDS011;10303;51.960;8.372;2023-10-08T10:05:11;0.67;;;0.50;;
20287;SDS011;10303;51.960;8.372;2023-10-08T10:07:43;0.40;;;0.30;;
20287;SDS011;10303;51.960;8.372;2023-10-08T10:10:29;1.17;;;0.50;;
20287;SDS011;10303;51.960;8.372;2023-10-08T10:13:02;5.00;;;0.93;;
20287;SDS011;10303;51.960;8.372;2023-10-08T10:15:38;0.97;;;0.50;;
20287;SDS011;10303;51.960;8.372;2023-10-08T10:18:08;2.03;;;0.60;;
20287;SDS011;10303;51.960;8.372;2023-10-08T10:20:50;0.40;;;0.40;;
20287;SDS011;10303;51.960;8.372;2023-10-08T10:26:27;7.63;;;1.52;;
20287;SDS011;10303;51.960;8.372;2023-10-08T10:31:46;1.42;;;0.80;;
20287;SDS011;10303;51.960;8.372;2023-10-08T10:34:20;1.30;;;0.70;;
20287;SDS011;10303;51.960;8.372;2023-10-08T10:36:52;1.63;;;0.55;;
20287;SDS011;10303;51.960;8.372;2023-10-08T10:39:23;2.85;;;0.98;;
20287;SDS011;10303;51.960;8.372;2023-10-08T10:41:52;1.67;;;0.93;;
20287;SDS011;10303;51.960;8.372;2023-10-08T10:44:22;3.92;;;0.60;;
20287;SDS011;10303;51.960;8.372;2023-10-08T10:46:50;1.70;;;0.77;;
20287;SDS011;10303;51.960;8.372;2023-10-08T10:49:17;2.33;;;0.60;;
20287;SDS011;10303;51.960;8.372;2023-10-08T10:51:50;0.90;;;0.57;;
20287;SDS011;10303;51.960;8.372;2023-10-08T10:54:25;1.20;;;0.52;;
20287;SDS011;10303;51.960;8.372;2023-10-08T10:57:01;2.10;;;0.55;;
20287;SDS011;10303;51.960;8.372;2023-10-08T10:59:43;0.63;;;0.50;;
20287;SDS011;10303;51.960;8.372;2023-10-08T11:02:18;1.08;;;0.40;;
20287;SDS011;10303;51.960;8.372;2023-10-08T11:04:56;0.65;;;0.40;;
20287;SDS011;10303;51.960;8.372;2023-10-08T11:07:33;0.65;;;0.55;;
20287;SDS011;10303;51.960;8.372;2023-10-08T11:10:00;2.25;;;0.68;;
20287;SDS011;10303;51.960;8.372;2023-10-08T11:12:26;1.23;;;0.40;;
20287;SDS011;10303;51.960;8.372;2023-10-08T11:15:08;0.70;;;0.50;;
20287;SDS011;10303;51.960;8.372;2023-10-08T11:17:41;0.63;;;0.47;;
20287;SDS011;10303;51.960;8.372;2023-10-08T11:20:24;2.25;;;0.70;;
20287;SDS011;10303;51.960;8.372;2023-10-08T11:22:58;0.60;;;0.60;;
20287;SDS011;10303;51.960;8.372;2023-10-08T11:26:04;0.70;;;0.60;;
20287;SDS011;10303;51.960;8.372;2023-10-08T11:28:38;1.05;;;0.73;;
20287;SDS011;10303;51.960;8.372;2023-10-08T11:31:11;1.38;;;1.10;;
20287;SDS011;10303;51.960;8.372;2023-10-08T11:33:42;1.58;;;0.80;;
20287;SDS011;10303;51.960;8.372;2023-10-08T11:36:19;2.05;;;0.55;;
20287;SDS011;10303;51.960;8.372;2023-10-08T11:39:12;2.85;;;0.35;;
20287;SDS011;10303;51.960;8.372;2023-10-08T11:42:00;2.22;;;0.82;;
20287;SDS011;10303;51.960;8.372;2023-10-08T11:44:41;1.85;;;0.77;;
20287;SDS011;10303;51.960;8.372;2023-10-08T11:47:08;0.60;;;0.50;;
20287;SDS011;10303;51.960;8.372;2023-10-08T11:49:46;1.00;;;0.52;;
20287;SDS011;10303;51.960;8.372;2023-10-08T11:52:15;1.10;;;0.30;;
20287;SDS011;10303;51.960;8.372;2023-10-08T11:54:42;3.42;;;0.70;;
20287;SDS011;10303;51.960;8.372;2023-10-08T11:57:09;1.08;;;0.73;;
20287;SDS011;10303;51.960;8.372;2023-10-08T11:59:36;0.40;;;0.40;;
20287;SDS011;10303;51.960;8.372;2023-10-08T12:02:08;1.83;;;0.43;;
20287;SDS011;10303;51.960;8.372;2023-10-08T12:04:34;0.60;;;0.50;;
20287;SDS011;10303;51.960;8.372;2023-10-08T12:07:01;1.13;;;0.60;;
20287;SDS011;10303;51.960;8.372;2023-10-08T12:09:32;0.90;;;0.60;;
20287;SDS011;10303;51.960;8.372;2023-10-08T12:12:03;1.05;;;0.68;;
20287;SDS011;10303;51.960;8.372;2023-10-08T12:14:37;5.32;;;1.23;;
20287;SDS011;10303;51.960;8.372;2023-10-08T12:17:04;0.77;;;0.60;;
20287;SDS011;10303;51.960;8.372;2023-10-08T12:19:39;0.45;;;0.38;;
20287;SDS011;10303;51.960;8.372;2023-10-08T12:22:08;0.80;;;0.70;;
20287;SDS011;10303;51.960;8.372;2023-10-08T12:24:34;0.80;;;0.68;;
20287;SDS011;10303;51.960;8.372;2023-10-08T12:27:00;1.77;;;0.50;;
20287;SDS011;10303;51.960;8.372;2023-10-08T12:29:28;1.90;;;1.02;;
20287;SDS011;10303;51.960;8.372;2023-10-08T12:31:56;0.73;;;0.40;;
20287;SDS011;10303;51.960;8.372;2023-10-08T12:34:25;1.40;;;0.87;;
20287;SDS011;10303;51.960;8.372;2023-10-08T12:36:54;4.00;;;0.90;;
20287;SDS011;10303;51.960;8.372;2023-10-08T12:39:20;0.80;;;0.50;;
20287;SDS011;10303;51.960;8.372;2023-10-08T12:41:50;0.80;;;0.67;;
20287;SDS011;10303;51.960;8.372;2023-10-08T12:44:18;2.47;;;0.93;;
20287;SDS011;10303;51.960;8.372;2023-10-08T12:46:44;2.50;;;1.10;;
20287;SDS011;10303;51.960;8.372;2023-10-08T12:49:13;1.00;;;0.87;;
20287;SDS011;10303;51.960;8.372;2023-10-08T12:51:39;2.97;;;1.23;;
20287;SDS011;10303;51.960;8.372;2023-10-08T12:54:06;1.67;;;0.53;;
20287;SDS011;10303;51.960;8.372;2023-10-08T12:56:34;0.67;;;0.60;;
20287;SDS011;10303;51.960;8.372;2023-10-08T12:59:03;2.23;;;0.63;;
20287;SDS011;10303;51.960;8.372;2023-10-08T13:01:35;0.97;;;0.50;;
20287;SDS011;10303;51.960;8.372;2023-10-08T13:04:06;3.93;;;0.80;;
20287;SDS011;10303;51.960;8.372;2023-10-08T13:06:41;5.78;;;0.85;;
20287;SDS011;10303;51.960;8.372;2023-10-08T13:09:10;1.10;;;0.63;;
20287;SDS011;10303;51.960;8.372;2023-10-08T13:11:39;0.80;;;0.60;;
20287;SDS011;10303;51.960;8.372;2023-10-08T13:14:05;1.98;;;0.60;;
20287;SDS011;10303;51.960;8.372;2023-10-08T13:16:31;0.85;;;0.50;;
20287;SDS011;10303;51.960;8.372;2023-10-08T13:18:58;1.00;;;0.75;;
20287;SDS011;10303;51.960;8.372;2023-10-08T13:21:25;1.38;;;0.73;;
20287;SDS011;10303;51.960;8.372;2023-10-08T13:23:52;1.17;;;0.70;;
20287;SDS011;10303;51.960;8.372;2023-10-08T13:26:18;2.22;;;0.75;;
20287;SDS011;10303;51.960;8.372;2023-10-08T13:28:47;2.92;;;1.50;;
20287;SDS011;10303;51.960;8.372;2023-10-08T13:31:14;2.28;;;0.80;;
20287;SDS011;10303;51.960;8.372;2023-10-08T13:33:42;1.20;;;0.93;;
20287;SDS011;10303;51.960;8.372;2023-10-08T13:36:10;0.65;;;0.65;;
20287;SDS011;10303;51.960;8.372;2023-10-08T13:38:39;1.80;;;0.82;;
20287;SDS011;10303;51.960;8.372;2023-10-08T13:41:10;0.63;;;0.60;;
20287;SDS011;10303;51.960;8.372;2023-10-08T13:43:40;1.65;;;1.35;;
20287;SDS011;10303;51.960;8.372;2023-10-08T13:46:11;1.13;;;0.85;;
20287;SDS011;10303;51.960;8.372;2023-10-08T13:48:44;0.50;;;0.50;;
20287;SDS011;10303;51.960;8.372;2023-10-08T13:51:19;1.25;;;0.50;;
20287;SDS011;10303;51.960;8.372;2023-10-08T13:53:54;2.13;;;0.63;;
20287;SDS011;10303;51.960;8.372;2023-10-08T13:56:25;1.15;;;0.50;;
20287;SDS011;10303;51.960;8.372;2023-10-08T13:58:58;1.63;;;0.50;;
20287;SDS011;10303;51.960;8.372;2023-10-08T14:01:30;0.65;;;0.45;;
20287;SDS011;10303;51.960;8.372;2023-10-08T14:03:59;0.50;;;0.30;;
20287;SDS011;10303;51.960;8.372;2023-10-08T14:06:31;0.35;;;0.35;;
20287;SDS011;10303;51.960;8.372;2023-10-08T14:09:03;0.45;;;0.40;;
20287;SDS011;10303;51.960;8.372;2023-10-08T14:11:34;0.30;;;0.30;;
20287;SDS011;10303;51.960;8.372;2023-10-08T14:14:00;0.47;;;0.30;;
20287;SDS011;10303;51.960;8.372;2023-10-08T14:16:33;0.60;;;0.40;;
20287;SDS011;10303;51.960;8.372;2023-10-08T14:19:04;0.60;;;0.40;;
20287;SDS011;10303;51.960;8.372;2023-10-08T14:21:32;1.13;;;0.50;;
20287;SDS011;10303;51.960;8.372;2023-10-08T14:24:04;0.88;;;0.40;;
20287;SDS011;10303;51.960;8.372;2023-10-08T14:26:30;1.50;;;0.40;;
20287;SDS011;10303;51.960;8.372;2023-10-08T14:29:01;1.38;;;0.38;;
20287;SDS011;10303;51.960;8.372;2023-10-08T14:31:40;0.45;;;0.30;;
20287;SDS011;10303;51.960;8.372;2023-10-08T14:34:09;1.10;;;0.40;;
20287;SDS011;10303;51.960;8.372;2023-10-08T14:36:42;0.80;;;0.40;;
20287;SDS011;10303;51.960;8.372;2023-10-08T14:39:28;0.50;;;0.40;;
20287;SDS011;10303;51.960;8.372;2023-10-08T14:42:13;0.93;;;0.30;;
20287;SDS011;10303;51.960;8.372;2023-10-08T14:44:58;0.57;;;0.30;;
20287;SDS011;10303;51.960;8.372;2023-10-08T14:47:25;0.30;;;0.30;;
20287;SDS011;10303;51.960;8.372;2023-10-08T14:49:52;0.50;;;0.30;;
20287;SDS011;10303;51.960;8.372;2023-10-08T14:52:18;0.97;;;0.30;;
20287;SDS011;10303;51.960;8.372;2023-10-08T14:54:44;2.10;;;0.60;;
20287;SDS011;10303;51.960;8.372;2023-10-08T14:57:11;1.03;;;0.23;;
20287;SDS011;10303;51.960;8.372;2023-10-08T14:59:40;0.33;;;0.30;;
20287;SDS011;10303;51.960;8.372;2023-10-08T15:02:07;1.37;;;0.27;;
20287;SDS011;10303;51.960;8.372;2023-10-08T15:04:36;0.73;;;0.40;;
20287;SDS011;10303;51.960;8.372;2023-10-08T15:07:07;0.57;;;0.40;;
20287;SDS011;10303;51.960;8.372;2023-10-08T15:09:36;1.00;;;0.47;;
20287;SDS011;10303;51.960;8.372;2023-10-08T15:12:04;0.40;;;0.30;;
20287;SDS011;10303;51.960;8.372;2023-10-08T15:14:34;0.70;;;0.50;;
20287;SDS011;10303;51.960;8.372;2023-10-08T15:17:01;0.50;;;0.30;;
20287;SDS011;10303;51.960;8.372;2023-10-08T15:19:27;0.53;;;0.30;;
20287;SDS011;10303;51.960;8.372;2023-10-08T15:21:54;1.50;;;0.53;;
20287;SDS011;10303;51.960;8.372;2023-10-08T15:24:20;0.33;;;0.30;;
20287;SDS011;10303;51.960;8.372;2023-10-08T15:26:51;0.50;;;0.40;;
20287;SDS011;10303;51.960;8.372;2023-10-08T15:29:22;1.53;;;0.50;;
20287;SDS011;10303;51.960;8.372;2023-10-08T15:31:54;0.47;;;0.30;;
20287;SDS011;10303;51.960;8.372;2023-10-08T15:34:22;0.30;;;0.30;;